createdAt,value
2024-03-08T00:04:34.163Z,2.14
2024-03-08T00:09:37.292Z,2.07
2024-03-08T00:14:38.946Z,1.97
2024-03-08T00:19:40.746Z,1.88
2024-03-08T00:24:44.235Z,1.94
2024-03-08T00:29:46.103Z,1.82
2024-03-08T00:34:47.914Z,1.88
2024-03-08T00:39:51.281Z,1.86
2024-03-08T00:44:53.565Z,1.74
2024-03-08T00:49:55.229Z,1.70
2024-03-08T00:54:58.230Z,1.66
2024-03-08T00:59:59.987Z,1.63
2024-03-08T01:05:01.695Z,1.48
2024-03-08T01:10:05.551Z,1.45
2024-03-08T01:15:07.988Z,1.48
2024-03-08T01:20:11.839Z,1.35
2024-03-08T01:25:15.013Z,1.28
2024-03-08T01:30:16.877Z,1.29
2024-03-08T01:35:18.560Z,0.93
2024-03-08T01:40:22.009Z,1.07
2024-03-08T01:45:23.472Z,1.09
2024-03-08T01:50:25.219Z,1.13
2024-03-08T01:55:28.339Z,1.12
2024-03-08T02:00:29.988Z,1.06
2024-03-08T02:05:31.895Z,1.03
2024-03-08T02:10:34.987Z,1.08
2024-03-08T02:15:52.867Z,1.13
2024-03-08T02:20:56.819Z,1.18
2024-03-08T02:25:58.671Z,1.12
2024-03-08T02:31:00.434Z,0.93
2024-03-08T02:36:03.820Z,0.90
2024-03-08T02:41:05.563Z,0.81
2024-03-08T02:46:07.191Z,0.82
2024-03-08T02:51:10.156Z,0.69
2024-03-08T02:56:11.807Z,0.60
2024-03-08T03:01:13.501Z,0.51
2024-03-08T03:06:16.537Z,-0.08
2024-03-08T03:11:18.194Z,0.41
2024-03-08T03:16:19.938Z,0.53
2024-03-08T03:21:23.213Z,0.84
2024-03-08T03:26:24.914Z,1.06
2024-03-08T03:31:26.709Z,1.00
2024-03-08T03:36:29.865Z,1.00
2024-03-08T03:41:31.630Z,0.90
2024-03-08T03:46:33.316Z,0.86
2024-03-08T03:51:36.374Z,0.67
2024-03-08T03:56:38.326Z,0.56
2024-03-08T04:01:43.313Z,0.44
2024-03-08T04:06:46.368Z,0.32
2024-03-08T04:11:48.161Z,0.20
2024-03-08T04:16:49.862Z,0.08
2024-03-08T04:21:52.809Z,0.03
2024-03-08T04:26:54.705Z,-0.07
2024-03-08T04:31:56.579Z,-0.16
2024-03-08T04:36:59.720Z,-0.33
2024-03-08T04:42:06.135Z,-0.47
2024-03-08T04:47:08.297Z,-0.41
2024-03-08T04:52:11.316Z,-0.47
2024-03-08T04:57:12.970Z,-0.51
2024-03-08T05:02:14.618Z,-0.57
2024-03-08T05:07:17.640Z,-0.65
2024-03-08T05:12:19.386Z,-0.72
2024-03-08T05:17:21.105Z,-0.84
2024-03-08T05:22:24.173Z,-0.93
2024-03-08T05:27:25.851Z,-1.01
2024-03-08T05:32:28.616Z,-1.01
2024-03-08T05:37:33.700Z,-1.03
2024-03-08T05:42:35.429Z,-1.08
2024-03-08T05:47:37.073Z,-1.24
2024-03-08T05:52:40.440Z,-1.12
2024-03-08T05:57:42.100Z,-1.12
2024-03-08T06:02:44.971Z,-1.15
2024-03-08T06:07:47.929Z,-1.14
2024-03-08T06:12:49.511Z,-1.17
2024-03-08T06:17:51.175Z,-1.40
2024-03-08T06:22:54.446Z,-1.28
2024-03-08T06:27:56.218Z,-1.21
2024-03-08T06:32:57.971Z,-1.18
2024-03-08T06:38:01.406Z,-1.12
2024-03-08T06:43:03.117Z,-1.16
2024-03-08T06:48:05.621Z,-1.02
2024-03-08T06:53:08.614Z,-0.96
2024-03-08T06:58:10.282Z,-0.85
2024-03-08T07:03:11.898Z,-0.67
2024-03-08T07:08:14.902Z,-0.50
2024-03-08T07:13:16.516Z,-0.28
2024-03-08T07:18:18.169Z,0.14
2024-03-08T07:23:21.312Z,0.05
2024-03-08T07:28:23.408Z,1.01
2024-03-08T07:33:25.100Z,1.42
2024-03-08T07:38:28.318Z,1.80
2024-03-08T07:43:30.053Z,2.14
2024-03-08T07:48:32.038Z,2.41
2024-03-08T07:53:35.149Z,2.74
2024-03-08T07:58:36.846Z,3.01
2024-03-08T08:03:38.501Z,3.27
2024-03-08T08:08:42.374Z,3.56
2024-03-08T08:13:44.042Z,3.86
2024-03-08T08:18:45.711Z,4.07
2024-03-08T08:23:48.652Z,4.30
2024-03-08T08:28:50.467Z,4.52
2024-03-08T08:33:52.404Z,4.78
2024-03-08T08:38:55.411Z,5.02
2024-03-08T08:44:03.699Z,5.20
2024-03-08T08:49:16.193Z,5.41
2024-03-08T08:54:19.553Z,5.68
2024-03-08T08:59:23.719Z,5.84
2024-03-08T09:04:25.570Z,6.09
2024-03-08T09:09:28.709Z,6.34
2024-03-08T09:14:30.309Z,6.56
2024-03-08T09:19:31.956Z,6.75
2024-03-08T09:24:35.143Z,7.03
2024-03-08T09:29:37.158Z,7.24
2024-03-08T09:34:39.028Z,7.37
2024-03-08T09:39:42.228Z,7.41
2024-03-08T09:44:47.434Z,7.56
2024-03-08T09:49:49.111Z,7.66
2024-03-08T09:54:52.125Z,7.83
2024-03-08T09:59:53.812Z,7.90
2024-03-08T10:04:55.481Z,8.06
2024-03-08T10:09:58.719Z,8.27
2024-03-08T10:15:00.442Z,8.24
2024-03-08T10:20:02.354Z,8.27
2024-03-08T10:25:06.221Z,8.38
2024-03-08T10:30:12.147Z,8.50
2024-03-08T10:35:14.001Z,8.69
2024-03-08T10:40:19.668Z,8.41
2024-03-08T10:45:31.517Z,8.82
2024-03-08T10:50:34.051Z,8.99
2024-03-08T10:55:40.649Z,9.09
2024-03-08T11:00:42.442Z,9.21
2024-03-08T11:05:46.464Z,9.39
2024-03-08T11:10:51.753Z,9.54
2024-03-08T11:15:53.445Z,9.69
2024-03-08T11:20:55.162Z,9.71
2024-03-08T11:25:58.515Z,9.78
2024-03-08T11:31:26.454Z,9.77
2024-03-08T11:36:28.239Z,9.82
2024-03-08T11:41:31.617Z,10.06
2024-03-08T11:46:33.500Z,10.14
2024-03-08T11:51:35.226Z,10.28
2024-03-08T11:56:38.664Z,10.57
2024-03-08T12:01:40.402Z,10.61
2024-03-08T12:06:42.441Z,10.74
2024-03-08T12:11:48.651Z,10.98
2024-03-08T12:16:52.165Z,11.17
2024-03-08T12:21:54.951Z,11.21
2024-03-08T12:26:57.904Z,11.35
2024-03-08T12:32:00.795Z,11.41
2024-03-08T12:37:03.179Z,11.63
2024-03-08T12:42:07.179Z,11.62
2024-03-08T12:47:08.900Z,11.56
2024-03-08T12:52:11.347Z,11.54
2024-03-08T12:57:14.264Z,11.59
2024-03-08T13:02:16.029Z,11.56
2024-03-08T13:07:17.735Z,11.64
2024-03-08T13:12:21.077Z,11.73
2024-03-08T13:17:22.739Z,11.72
2024-03-08T13:22:24.394Z,11.72
2024-03-08T13:27:28.026Z,11.86
2024-03-08T13:32:29.824Z,11.94
2024-03-08T13:37:31.651Z,12.11
2024-03-08T13:42:34.666Z,12.07
2024-03-08T13:47:36.357Z,12.14
2024-03-08T13:52:37.986Z,12.22
2024-03-08T13:57:40.993Z,12.44
2024-03-08T14:02:43.750Z,12.39
2024-03-08T14:07:45.390Z,12.43
2024-03-08T14:12:48.486Z,12.32
2024-03-08T14:17:54.191Z,12.31
2024-03-08T14:22:56.814Z,12.45
2024-03-08T14:28:00.320Z,12.47
2024-03-08T14:33:02.692Z,12.46
2024-03-08T14:38:04.517Z,12.59
2024-03-08T14:43:08.157Z,12.50
2024-03-08T14:48:10.242Z,12.44
2024-03-08T14:53:11.940Z,12.49
2024-03-08T14:58:15.395Z,12.55
2024-03-08T15:03:17.167Z,12.40
2024-03-08T15:08:18.847Z,12.44
2024-03-08T15:13:22.737Z,12.43
2024-03-08T15:18:25.852Z,12.34
2024-03-08T15:23:27.588Z,12.23
2024-03-08T15:28:30.849Z,12.13
2024-03-08T15:33:33.717Z,11.96
2024-03-08T15:38:35.422Z,11.94
2024-03-08T15:43:38.825Z,11.81
2024-03-08T15:48:40.504Z,11.65
2024-03-08T15:53:42.211Z,11.60
2024-03-08T15:58:45.192Z,11.61
2024-03-08T16:03:47.117Z,11.58
2024-03-08T16:08:48.809Z,11.55
2024-03-08T16:13:52.001Z,11.46
2024-03-08T16:18:53.733Z,11.31
2024-03-08T16:23:55.407Z,11.05
2024-03-08T16:28:58.417Z,10.89
2024-03-08T16:34:00.090Z,10.87
2024-03-08T16:39:01.758Z,10.78
2024-03-08T16:44:05.213Z,10.54
2024-03-08T16:49:07.195Z,10.38
2024-03-08T16:54:09.147Z,10.20
2024-03-08T16:59:12.218Z,10.07
2024-03-08T17:04:13.899Z,9.88
2024-03-08T17:09:15.659Z,9.74
2024-03-08T17:14:18.712Z,9.52
2024-03-08T17:19:20.413Z,9.37
2024-03-08T17:24:22.152Z,9.20
2024-03-08T17:29:25.138Z,9.06
2024-03-08T17:34:26.944Z,8.93
2024-03-08T17:39:28.886Z,8.81
2024-03-08T17:44:33.432Z,8.70
2024-03-08T17:49:36.535Z,8.53
2024-03-08T17:54:38.293Z,8.42
2024-03-08T17:59:41.305Z,8.32
2024-03-08T18:04:43.323Z,8.13
2024-03-08T18:09:45.105Z,7.80
2024-03-08T18:14:48.111Z,7.72
2024-03-08T18:19:51.172Z,7.60
2024-03-08T18:24:53.366Z,7.49
2024-03-08T18:29:56.442Z,7.38
2024-03-08T18:34:58.275Z,7.07
2024-03-08T18:40:00.341Z,6.89
2024-03-08T18:45:04.049Z,6.72
2024-03-08T18:50:07.296Z,5.71
2024-03-08T18:55:10.215Z,6.42
2024-03-08T19:00:15.706Z,6.24
2024-03-08T19:05:18.044Z,5.50
2024-03-08T19:10:22.287Z,5.86
2024-03-08T19:15:27.327Z,5.71
2024-03-08T19:20:30.389Z,5.30
2024-03-08T19:25:32.653Z,5.32
2024-03-08T19:30:35.653Z,5.18
2024-03-08T19:35:37.596Z,5.06
2024-03-08T19:40:39.578Z,4.95
2024-03-08T19:45:42.790Z,4.91
2024-03-08T19:50:44.808Z,4.86
2024-03-08T19:55:47.198Z,4.75
2024-03-08T20:00:50.923Z,4.22
2024-03-08T20:05:53.002Z,4.64
2024-03-08T20:10:54.692Z,4.59
2024-03-08T20:15:57.703Z,4.53
2024-03-08T20:20:59.317Z,4.57
2024-03-08T20:26:01.042Z,4.54
2024-03-08T20:31:04.686Z,4.70
2024-03-08T20:36:07.267Z,4.96
2024-03-08T20:41:09.051Z,5.35
2024-03-08T20:46:13.400Z,5.45
2024-03-08T20:51:16.036Z,5.41
2024-03-08T20:56:17.646Z,5.46
2024-03-08T21:01:20.785Z,5.50
2024-03-08T21:06:22.506Z,5.72
2024-03-08T21:11:24.586Z,5.71
2024-03-08T21:16:27.739Z,6.05
2024-03-08T21:21:29.471Z,6.26
2024-03-08T21:26:31.432Z,6.17
2024-03-08T21:31:34.457Z,6.09
2024-03-08T21:36:36.281Z,6.15
2024-03-08T21:41:38.346Z,6.16
2024-03-08T21:46:41.887Z,6.00
2024-03-08T21:51:43.681Z,5.95
2024-03-08T21:56:45.257Z,5.90
2024-03-08T22:01:48.295Z,5.87
2024-03-08T22:06:50.066Z,5.75
2024-03-08T22:11:51.764Z,5.59
2024-03-08T22:16:54.794Z,5.57
2024-03-08T22:21:56.800Z,5.42
2024-03-08T22:26:58.471Z,5.19
2024-03-08T22:32:01.667Z,5.11
2024-03-08T22:37:04.291Z,4.87
2024-03-08T22:42:06.259Z,4.92
2024-03-08T22:47:09.291Z,4.72
2024-03-08T22:52:10.869Z,4.48
2024-03-08T22:57:12.537Z,4.24
2024-03-08T23:02:15.595Z,4.09
2024-03-08T23:07:17.269Z,3.87
2024-03-08T23:12:19.133Z,3.68
2024-03-08T23:17:22.079Z,3.52
2024-03-08T23:22:23.815Z,3.30
2024-03-08T23:27:25.433Z,3.20
2024-03-08T23:32:28.427Z,3.09
2024-03-08T23:37:30.264Z,3.00
2024-03-08T23:42:32.269Z,2.92
2024-03-08T23:47:35.449Z,2.85
2024-03-08T23:52:36.984Z,3.00
2024-03-08T23:57:38.930Z,3.03
